Terminal Aerodrome Forecast
Issued by NWS

Home | Current Version | Previous Version | Text Only | Print | Product List | Glossary On
Versions: 1 2 3 4 5 6 7 8 9 10 11 12 13 14 15 16 17 18 19 20 21 22 23 24
010
FTUS45 KPSR 060522
TAFIWA
TAF
KIWA 060522Z 0606/0706 25009KT P6SM FEW150 FEW250
     FM061000 15010KT P6SM FEW050 SCT090
     FM061500 18011KT P6SM SCT050 BKN070
     FM062000 24015G24KT P6SM SCT050 BKN080
     FM070200 26014KT P6SM -SHRA BKN050 OVC070
      AMD LTD TO CLD VIS AND WIND TIL 061300=

USA.gov is the U.S. government's official web portal to all federal, state and local government web resources and services.